ILG weather

Ilugwa/Antara Airport
Ilugwa, Papua, Indonesia

Public forecast

Using degrees Celsius for public forecast. Weather courtesy of forecast.io.

Closest aviation weather report (METAR) to Ilugwa/Antara Airport

Closest report is Sentani International Airport, 121.8 nm (225.6 km) NE. Retrieved 2020/01/26 07:30 UTC (13 minutes ago):

WAJJ 260730Z 29014KT 9999 FEW011CB SCT012 30/22 Q1005 NOSIG

Closest aviation forecast (TAF) to Ilugwa/Antara Airport

Forecast is more than 12 hours old.

Closest forecast is Sentani International Airport, 121.8 nm (225.6 km) NE. Retrieved 2013/03/11 12:00 UTC (7 years ago):

TAF WAJJ 111100Z 1112/1212 29006KT 5000 HZ SCT016 TEMPO 1113/1121 4000 RA FEW014CB BECMG 1200/1202 28012KT 9999 TEMPO 1207/1212 6000 RA FEW014CB